Terminal Aerodrome Forecast
Issued by NWS Jackson, MS

Home | Current Version | Previous Version | Text Only | Print | Product List | Glossary On
Versions: 1 2 3 4 5 6 7 8 9 10 11 12 13 14 15 16
000
FTUS44 KMEG 261726
TAFTUP
TAF
KTUP 261726Z 2618/2718 23004KT P6SM SCT045 BKN080
     FM261930 35010KT P6SM VCSH SCT015 OVC040
      TEMPO 2620/2621 4SM -DZ BR BKN015
     FM262100 01010G17KT P6SM VCSH OVC010
      TEMPO 2621/2624 3SM -DZ BR OVC008
     FM270000 02011KT P6SM OVC012
     FM270800 01006KT P6SM SKC=

USA.gov is the U.S. government's official web portal to all federal, state and local government web resources and services.